Time;durP1;ratioP1;P1;durP2;ratioP2;P2;SDS_P1;SDS_P2;PMS_P1;PMS_P2;Temp;Humidity;BMP_temperature;BMP_pressure;BME280_temperature;BME280_humidity;BME280_pressure;Samples;Min_cycle;Max_cycle;Signal;HPM_P1;HPM_P2
2023/05/29 00:01:31;;;;;;;;;;;;;;;20.08;81.45;102221.63;5061028;28;19913;-53
2023/05/29 00:03:57;;;;;;;;;;;;;;;20.09;81.70;102218.69;5059892;28;19920;-52
2023/05/29 00:06:23;;;;;;;;;;;;;;;20.12;80.52;102223.69;5054419;28;19917;-54
2023/05/29 00:08:48;;;;;;;;;;;;;;;19.76;83.47;102225.25;5061991;28;19925;-51
2023/05/29 00:11:14;;;;;;;;;;;;;;;19.63;86.75;102232.47;5063391;28;20031;-50
2023/05/29 00:13:40;;;;;;;;;;;;;;;19.71;85.31;102227.81;5061933;28;19947;-50
2023/05/29 00:16:05;;;;;;;;;;;;;;;19.69;85.78;102230.75;5039643;28;19917;-50
2023/05/29 00:18:31;;;;;;;;;;;;;;;19.76;84.99;102223.38;5056604;28;19917;-52
2023/05/29 00:20:56;;;;;;;;;;;;;;;19.78;85.05;102225.84;5054380;28;19917;-55
2023/05/29 00:23:22;;;;;;;;;;;;;;;19.41;89.27;102232.03;5056635;28;19905;-54
2023/05/29 00:25:47;;;;;;;;;;;;;;;19.58;87.34;102221.44;5058887;28;19955;-55
2023/05/29 00:28:13;;;;;;;;;;;;;;;19.58;88.17;102226.88;5059204;28;19924;-51
2023/05/29 00:30:39;;;;;;;;;;;;;;;19.55;87.84;102230.03;5058350;28;19913;-55
2023/05/29 00:33:05;;;;;;;;;;;;;;;19.56;87.12;102237.13;5061764;28;19913;-55
2023/05/29 00:35:30;;;;;;;;;;;;;;;19.62;87.73;102232.69;5060691;28;19996;-55
2023/05/29 00:37:56;;;;;;;;;;;;;;;19.34;91.12;102234.78;5039360;28;19935;-54
2023/05/29 00:40:22;;;;;;;;;;;;;;;19.42;90.31;102241.00;5058603;28;19912;-53
2023/05/29 00:42:47;;;;;;;;;;;;;;;19.09;91.86;102232.06;5041351;28;19913;-53
2023/05/29 00:45:13;;;;;;;;;;;;;;;19.14;92.75;102234.94;5065316;28;19971;-51
2023/05/29 00:47:42;;;;;;;;;;;;;;;19.27;90.98;102236.72;5047126;28;19970;-52
2023/05/29 00:50:13;;;;;;;;;;;;;;;19.39;89.97;102241.47;5063470;28;19913;-54
2023/05/29 00:52:42;;;;;;;;;;;;;;;19.17;91.65;102239.94;5061315;28;19947;-52
2023/05/29 00:55:08;;;;;;;;;;;;;;;19.13;92.37;102237.88;5036343;28;19913;-55
2023/05/29 00:57:35;;;;;;;;;;;;;;;18.87;95.19;102245.94;5039749;28;19955;-53
2023/05/29 01:00:04;;;;;;;;;;;;;;;19.08;93.00;102243.13;5045486;28;19913;-54
2023/05/29 01:02:31;;;;;;;;;;;;;;;19.08;92.57;102245.81;5060655;28;19913;-52
2023/05/29 01:04:56;;;;;;;;;;;;;;;19.17;91.61;102258.09;5043935;28;19917;-52
2023/05/29 01:07:22;;;;;;;;;;;;;;;19.06;91.81;102259.63;5062618;28;19917;-54
2023/05/29 01:09:47;;;;;;;;;;;;;;;19.03;91.92;102260.03;5058013;28;19963;-53
2023/05/29 01:12:13;;;;;;;;;;;;;;;19.00;92.43;102265.88;5043427;28;19920;-54
2023/05/29 01:14:51;;;;;;;;;;;;;;;18.99;92.17;102275.06;5062854;28;19913;-48
2023/05/29 01:17:20;;;;;;;;;;;;;;;18.94;92.77;102273.00;5062406;28;19943;-56
2023/05/29 01:19:57;;;;;;;;;;;;;;;18.73;94.72;102277.69;5060717;28;19912;-52
2023/05/29 01:22:23;;;;;;;;;;;;;;;18.87;93.80;102273.03;5057956;28;19917;-51
2023/05/29 01:25:02;;;;;;;;;;;;;;;18.92;93.36;102270.50;5042288;28;19935;-49
2023/05/29 01:27:29;;;;;;;;;;;;;;;18.92;93.35;102275.91;5039977;28;19925;-49
2023/05/29 01:29:55;;;;;;;;;;;;;;;18.88;93.49;102274.69;5041885;28;19970;-53
2023/05/29 01:32:21;;;;;;;;;;;;;;;18.93;93.22;102274.06;5057239;28;19921;-52
2023/05/29 01:34:46;;;;;;;;;;;;;;;18.90;93.39;102279.88;5059367;28;19948;-51
2023/05/29 01:37:11;;;;;;;;;;;;;;;18.48;98.41;102278.41;5041302;28;19947;-52
2023/05/29 01:39:37;;;;;;;;;;;;;;;18.62;96.41;102286.47;5057665;28;19913;-54
2023/05/29 01:42:02;;;;;;;;;;;;;;;18.65;96.91;102285.22;5019387;28;19944;-52
2023/05/29 01:44:29;;;;;;;;;;;;;;;18.75;96.04;102282.88;5059094;28;19913;-53
2023/05/29 01:46:54;;;;;;;;;;;;;;;18.70;97.27;102288.97;5042582;28;19951;-56
2023/05/29 01:49:20;;;;;;;;;;;;;;;18.92;94.08;102280.53;5042374;28;19940;-51
2023/05/29 01:51:46;;;;;;;;;;;;;;;18.81;94.65;102284.75;5058888;28;19923;-55
2023/05/29 01:54:11;;;;;;;;;;;;;;;18.63;97.43;102280.84;5043982;28;19923;-52
2023/05/29 01:56:37;;;;;;;;;;;;;;;18.53;97.77;102276.94;5057825;28;19909;-54
2023/05/29 01:59:03;;;;;;;;;;;;;;;18.63;97.97;102288.97;5041007;28;19960;-52
2023/05/29 02:01:30;;;;;;;;;;;;;;;18.48;99.33;102286.53;5055489;28;19985;-50
2023/05/29 02:03:56;;;;;;;;;;;;;;;18.59;98.35;102281.47;5052961;28;19913;-52
2023/05/29 02:06:21;;;;;;;;;;;;;;;18.56;98.22;102276.50;5057020;28;19967;-50
2023/05/29 02:08:47;;;;;;;;;;;;;;;18.32;100.00;102278.88;5059230;28;19917;-53
2023/05/29 02:11:13;;;;;;;;;;;;;;;18.43;99.08;102280.91;5056830;28;20141;-52
2023/05/29 02:13:38;;;;;;;;;;;;;;;18.46;98.99;102282.38;5058163;28;19913;-52
2023/05/29 02:16:04;;;;;;;;;;;;;;;18.19;100.00;102279.72;5055197;28;19912;-51
2023/05/29 02:18:29;;;;;;;;;;;;;;;18.31;100.00;102282.63;5041133;28;19939;-53
2023/05/29 02:20:55;;;;;;;;;;;;;;;18.22;100.00;102292.00;5041958;28;19912;-54
2023/05/29 02:23:21;;;;;;;;;;;;;;;18.35;99.44;102291.97;5041121;28;20000;-54
2023/05/29 02:25:49;;;;;;;;;;;;;;;18.24;100.00;102290.75;5059042;28;19943;-54
2023/05/29 02:28:15;;;;;;;;;;;;;;;18.18;100.00;102291.59;5041201;28;19913;-54
2023/05/29 02:30:41;;;;;;;;;;;;;;;18.19;100.00;102295.97;5039237;28;19924;-55
2023/05/29 02:33:08;;;;;;;;;;;;;;;18.23;99.87;102299.09;5059048;28;19951;-53
2023/05/29 02:35:34;;;;;;;;;;;;;;;18.15;99.91;102292.84;5064629;28;19935;-58
2023/05/29 02:37:59;;;;;;;;;;;;;;;18.14;100.00;102280.34;5057835;28;19913;-53
2023/05/29 02:40:25;;;;;;;;;;;;;;;18.20;100.00;102276.78;5065430;28;19913;-55
2023/05/29 02:42:51;;;;;;;;;;;;;;;18.22;99.08;102281.16;5048704;28;19917;-51
2023/05/29 02:45:16;;;;;;;;;;;;;;;17.97;100.00;102288.06;5062751;28;19981;-49
2023/05/29 02:47:42;;;;;;;;;;;;;;;17.84;100.00;102288.91;5043081;28;19951;-51
2023/05/29 02:50:08;;;;;;;;;;;;;;;18.13;99.58;102283.28;5063731;28;19913;-51
2023/05/29 02:52:34;;;;;;;;;;;;;;;17.96;100.00;102286.41;5058037;28;19913;-52
2023/05/29 02:55:00;;;;;;;;;;;;;;;17.99;100.00;102287.84;5065767;28;19928;-54
2023/05/29 02:57:25;;;;;;;;;;;;;;;17.90;100.00;102288.06;5043412;28;19912;-51
2023/05/29 02:59:54;;;;;;;;;;;;;;;17.75;100.00;102282.03;5068242;28;19917;-49
2023/05/29 03:02:20;;;;;;;;;;;;;;;17.90;100.00;102288.06;5047920;28;19913;-52
2023/05/29 03:04:46;;;;;;;;;;;;;;;17.87;99.79;102291.19;5060848;28;19924;-54
2023/05/29 03:07:12;;;;;;;;;;;;;;;17.77;100.00;102298.91;5060771;28;19964;-50
2023/05/29 03:09:37;;;;;;;;;;;;;;;17.67;100.00;102295.75;5058296;28;19955;-49
2023/05/29 03:12:04;;;;;;;;;;;;;;;17.53;100.00;102292.22;5043001;28;19989;-53
2023/05/29 03:14:35;;;;;;;;;;;;;;;17.60;100.00;102293.91;5045138;28;19909;-52
2023/05/29 03:17:07;;;;;;;;;;;;;;;17.68;100.00;102295.56;5040297;28;19913;-51
2023/05/29 03:19:33;;;;;;;;;;;;;;;17.53;100.00;102290.38;5043093;28;19913;-49
2023/05/29 03:21:59;;;;;;;;;;;;;;;17.62;99.79;102291.81;5044042;28;19984;-49
2023/05/29 03:24:25;;;;;;;;;;;;;;;17.78;97.94;102293.25;5059083;28;19913;-52
2023/05/29 03:26:51;;;;;;;;;;;;;;;17.43;100.00;102287.22;5059951;28;19924;-55
2023/05/29 03:29:17;;;;;;;;;;;;;;;17.45;100.00;102290.53;5042819;28;19912;-50
2023/05/29 03:31:42;;;;;;;;;;;;;;;17.51;100.00;102295.13;5040159;28;19913;-54
2023/05/29 03:34:08;;;;;;;;;;;;;;;17.56;99.52;102300.75;5041848;28;19920;-50
2023/05/29 03:36:46;;;;;;;;;;;;;;;17.50;99.50;102298.88;5058432;28;19912;-49
2023/05/29 03:39:12;;;;;;;;;;;;;;;17.52;99.11;102296.78;5037455;28;19936;-52
2023/05/29 03:41:39;;;;;;;;;;;;;;;17.49;99.32;102299.91;5044684;28;19913;-54
2023/05/29 03:44:05;;;;;;;;;;;;;;;17.39;100.00;102292.19;5042622;28;20008;-53
2023/05/29 03:46:31;;;;;;;;;;;;;;;17.06;100.00;102301.88;5041402;28;19917;-53
2023/05/29 03:48:58;;;;;;;;;;;;;;;17.23;100.00;102295.31;5043458;28;19917;-51
2023/05/29 03:51:23;;;;;;;;;;;;;;;17.17;100.00;102302.34;5043595;28;19920;-55
2023/05/29 03:53:52;;;;;;;;;;;;;;;17.18;100.00;102298.59;5041981;28;19920;-50
2023/05/29 03:56:18;;;;;;;;;;;;;;;16.94;100.00;102299.94;5037166;28;20395;-54
2023/05/29 03:58:43;;;;;;;;;;;;;;;17.44;100.00;102311.34;5042540;28;19912;-54
2023/05/29 04:01:09;;;;;;;;;;;;;;;17.52;98.43;102310.31;5044696;28;19920;-52
2023/05/29 04:03:36;;;;;;;;;;;;;;;17.29;99.76;102303.41;5037570;28;19913;-53
2023/05/29 04:06:01;;;;;;;;;;;;;;;17.46;98.82;102308.44;5059535;28;19921;-54
2023/05/29 04:08:26;;;;;;;;;;;;;;;17.44;98.13;102311.34;5056843;28;20004;-54
2023/05/29 04:10:55;;;;;;;;;;;;;;;17.44;98.07;102305.94;5042280;28;19985;-53
2023/05/29 04:13:21;;;;;;;;;;;;;;;17.63;97.34;102312.41;5057082;28;19941;-53
2023/05/29 04:15:47;;;;;;;;;;;;;;;17.69;95.39;102320.72;5060628;28;19920;-52
2023/05/29 04:18:13;;;;;;;;;;;;;;;17.56;96.28;102310.72;5038084;28;19916;-53
2023/05/29 04:20:38;;;;;;;;;;;;;;;17.43;97.99;102316.97;5060172;28;19989;-51
2023/05/29 04:23:04;;;;;;;;;;;;;;;17.78;93.72;102324.91;5036417;28;19920;-53
2023/05/29 04:25:32;;;;;;;;;;;;;;;17.73;92.91;102319.28;5044629;28;19927;-50
2023/05/29 04:27:57;;;;;;;;;;;;;;;17.66;93.17;102326.56;5043223;28;19947;-53
2023/05/29 04:30:23;;;;;;;;;;;;;;;17.59;94.30;102332.81;5039474;28;19935;-52
2023/05/29 04:32:48;;;;;;;;;;;;;;;17.56;93.84;102330.53;5042290;28;19913;-56
2023/05/29 04:35:14;;;;;;;;;;;;;;;17.20;97.09;102321.72;5041374;28;19916;-51
2023/05/29 04:37:49;;;;;;;;;;;;;;;17.23;97.42;102322.34;5041804;28;19913;-55
2023/05/29 04:40:17;;;;;;;;;;;;;;;17.46;95.34;102316.53;5038403;28;20009;-55
2023/05/29 04:42:47;;;;;;;;;;;;;;;17.48;94.84;102317.16;5041011;28;20367;-54
2023/05/29 04:45:14;;;;;;;;;;;;;;;17.61;93.48;102325.31;5056910;28;19921;-55
2023/05/29 04:47:43;;;;;;;;;;;;;;;17.75;91.81;102322.59;5053129;28;19917;-52
2023/05/29 04:50:13;;;;;;;;;;;;;;;17.29;94.84;102337.72;5038468;28;19948;-55
2023/05/29 04:52:41;;;;;;;;;;;;;;;17.59;93.29;102335.50;5041429;28;19940;-53
2023/05/29 04:55:10;;;;;;;;;;;;;;;17.77;92.06;102342.19;5025889;28;19912;-54
2023/05/29 04:57:36;;;;;;;;;;;;;;;17.61;92.55;102341.53;5041239;28;19936;-53
2023/05/29 05:00:06;;;;;;;;;;;;;;;17.52;92.84;102347.34;5041125;28;19913;-54
2023/05/29 05:02:33;;;;;;;;;;;;;;;17.52;93.22;102350.88;5038865;28;19917;-50
2023/05/29 05:04:59;;;;;;;;;;;;;;;17.77;90.99;102359.25;5038800;28;19920;-50
2023/05/29 05:07:24;;;;;;;;;;;;;;;17.32;96.33;102354.38;5038422;28;20808;-54
2023/05/29 05:09:50;;;;;;;;;;;;;;;17.36;95.58;102356.69;5056596;28;19920;-53
2023/05/29 05:12:20;;;;;;;;;;;;;;;17.62;93.07;102364.00;5037892;28;19917;-54
2023/05/29 05:14:46;;;;;;;;;;;;;;;17.90;90.03;102368.44;5039394;28;19947;-55
2023/05/29 05:17:11;;;;;;;;;;;;;;;17.67;91.57;102360.69;5045029;28;19912;-54
2023/05/29 05:19:37;;;;;;;;;;;;;;;17.87;89.16;102366.97;5036314;28;19952;-55
2023/05/29 05:22:02;;;;;;;;;;;;;;;17.76;90.77;102359.44;5040107;28;19917;-52
2023/05/29 05:24:28;;;;;;;;;;;;;;;17.79;89.87;102364.47;5038711;28;19913;-52
2023/05/29 05:26:53;;;;;;;;;;;;;;;17.85;87.58;102366.34;5038428;28;19925;-52
2023/05/29 05:29:20;;;;;;;;;;;;;;;17.62;92.04;102364.84;5040854;28;19917;-52
2023/05/29 05:31:46;;;;;;;;;;;;;;;17.74;89.10;102370.47;5036071;28;19928;-51
2023/05/29 05:34:11;;;;;;;;;;;;;;;17.74;89.08;102364.22;5024148;28;19913;-52
2023/05/29 05:36:38;;;;;;;;;;;;;;;17.88;87.09;102365.91;5040634;28;19947;-53
2023/05/29 05:39:09;;;;;;;;;;;;;;;17.89;88.48;102359.47;5038570;28;19909;-54
2023/05/29 05:41:36;;;;;;;;;;;;;;;17.83;86.49;102365.72;5043066;28;19913;-55
2023/05/29 05:44:01;;;;;;;;;;;;;;;17.87;86.22;102368.81;5041247;28;19920;-55
2023/05/29 05:46:36;;;;;;;;;;;;;;;17.95;84.46;102373.19;5035851;28;19917;-56
2023/05/29 05:49:02;;;;;;;;;;;;;;;17.80;85.07;102363.41;5045195;28;20257;-56
2023/05/29 05:51:28;;;;;;;;;;;;;;;18.32;82.15;102369.03;5041536;28;19923;-55
2023/05/29 05:53:53;;;;;;;;;;;;;;;18.04;82.73;102377.41;5064247;28;19913;-56
2023/05/29 05:56:19;;;;;;;;;;;;;;;17.91;86.12;102378.22;5046801;28;19913;-54
2023/05/29 05:58:44;;;;;;;;;;;;;;;18.27;82.55;102376.97;5046133;28;19935;-55
2023/05/29 06:01:11;;;;;;;;;;;;;;;18.39;81.40;102377.16;5047900;28;19964;-55
2023/05/29 06:03:39;;;;;;;;;;;;;;;18.34;80.69;102375.13;5045396;28;19920;-57
2023/05/29 06:06:08;;;;;;;;;;;;;;;18.54;80.63;102385.06;5044735;28;19924;-56
2023/05/29 06:08:38;;;;;;;;;;;;;;;18.75;78.73;102385.84;5046474;28;19924;-59
2023/05/29 06:11:03;;;;;;;;;;;;;;;18.81;77.06;102381.47;5039074;28;19941;-56
2023/05/29 06:13:30;;;;;;;;;;;;;;;18.59;77.58;102384.44;5049017;28;19963;-52
2023/05/29 06:16:04;;;;;;;;;;;;;;;18.47;78.85;102386.94;5045535;28;19924;-52
2023/05/29 06:18:29;;;;;;;;;;;;;;;18.39;78.44;102395.31;5041435;28;19912;-53
2023/05/29 06:20:55;;;;;;;;;;;;;;;18.70;76.34;102397.34;5038648;28;19932;-54
2023/05/29 06:23:21;;;;;;;;;;;;;;;18.94;74.54;102392.28;5041197;28;19934;-53
2023/05/29 06:25:49;;;;;;;;;;;;;;;18.90;74.27;102388.28;5039064;28;19948;-53
2023/05/29 06:28:15;;;;;;;;;;;;;;;18.96;74.30;102394.75;5040709;28;19920;-56
2023/05/29 06:30:41;;;;;;;;;;;;;;;18.86;75.53;102395.19;5047007;28;19928;-53
2023/05/29 06:33:07;;;;;;;;;;;;;;;18.97;73.42;102391.00;5046082;28;19917;-54
2023/05/29 06:35:35;;;;;;;;;;;;;;;19.20;72.19;102395.94;5044607;28;19952;-52
2023/05/29 06:38:00;;;;;;;;;;;;;;;19.27;71.94;102391.31;5061396;28;19919;-54
2023/05/29 06:40:26;;;;;;;;;;;;;;;19.23;70.73;102400.94;5039514;28;19927;-54
2023/05/29 06:42:51;;;;;;;;;;;;;;;19.41;69.37;102402.13;5041977;28;19921;-52
2023/05/29 06:45:17;;;;;;;;;;;;;;;19.57;67.59;102398.88;5046944;28;19924;-53
2023/05/29 06:47:43;;;;;;;;;;;;;;;19.41;68.04;102385.84;5062467;28;19972;-52
2023/05/29 06:50:09;;;;;;;;;;;;;;;19.55;67.09;102400.97;5061263;28;19919;-55
2023/05/29 06:52:36;;;;;;;;;;;;;;;19.52;68.27;102398.69;5042554;28;19920;-53
2023/05/29 06:55:16;;;;;;;;;;;;;;;19.53;66.64;102400.34;5057751;28;19913;-54
2023/05/29 06:57:42;;;;;;;;;;;;;;;19.84;68.20;102400.59;5042464;28;19964;-53
2023/05/29 07:00:10;;;;;;;;;;;;;;;19.73;65.13;102400.25;5046055;28;19913;-54
2023/05/29 07:02:40;;;;;;;;;;;;;;;19.83;65.05;102399.72;5036627;28;21318;-54
2023/05/29 07:05:06;;;;;;;;;;;;;;;19.64;66.17;102406.97;5044787;28;19913;-54
2023/05/29 07:07:31;;;;;;;;;;;;;;;19.99;64.06;102408.44;5043640;28;19917;-52
2023/05/29 07:09:57;;;;;;;;;;;;;;;19.78;65.95;102413.16;5057534;28;19916;-54
2023/05/29 07:12:23;;;;;;;;;;;;;;;19.92;66.64;102406.59;5061313;28;19951;-54
2023/05/29 07:14:50;;;;;;;;;;;;;;;19.95;65.20;102408.03;5061682;28;19917;-51
2023/05/29 07:17:15;;;;;;;;;;;;;;;20.20;62.62;102415.38;5062731;28;19920;-53
2023/05/29 07:19:42;;;;;;;;;;;;;;;20.06;64.20;102403.78;5061400;28;19916;-53
2023/05/29 07:22:09;;;;;;;;;;;;;;;20.49;63.69;102407.59;5038052;28;19913;-50
2023/05/29 07:24:36;;;;;;;;;;;;;;;20.70;62.10;102409.03;5063099;28;19921;-56
2023/05/29 07:27:05;;;;;;;;;;;;;;;20.83;62.10;102410.81;5045428;28;19924;-54
2023/05/29 07:29:31;;;;;;;;;;;;;;;20.80;60.87;102410.44;5046085;28;19912;-54
2023/05/29 07:31:57;;;;;;;;;;;;;;;20.80;60.87;102408.53;5058430;28;19917;-53
2023/05/29 07:34:23;;;;;;;;;;;;;;;21.14;60.14;102414.44;5027033;28;19946;-54
2023/05/29 07:37:05;;;;;;;;;;;;;;;21.09;59.57;102408.81;5041100;28;19949;-54
2023/05/29 07:39:34;;;;;;;;;;;;;;;21.06;59.92;102412.84;5054786;28;20039;-52
2023/05/29 07:42:06;;;;;;;;;;;;;;;21.28;59.54;102415.09;5039403;28;19913;-55
2023/05/29 07:44:32;;;;;;;;;;;;;;;21.42;58.73;102415.75;5059437;28;19939;-54
2023/05/29 07:46:58;;;;;;;;;;;;;;;21.57;58.73;102418.03;5037551;28;19972;-53
2023/05/29 07:49:33;;;;;;;;;;;;;;;21.26;58.56;102419.09;5040717;28;19921;-52
2023/05/29 07:52:00;;;;;;;;;;;;;;;21.23;58.41;102416.81;5042059;28;19979;-55
2023/05/29 07:54:26;;;;;;;;;;;;;;;21.29;58.26;102424.06;5037547;28;19917;-52
2023/05/29 07:56:52;;;;;;;;;;;;;;;21.40;58.18;102425.19;5042825;28;19920;-50
2023/05/29 07:59:18;;;;;;;;;;;;;;;21.44;59.66;102427.22;5041956;28;19921;-52
2023/05/29 08:01:44;;;;;;;;;;;;;;;21.49;59.00;102416.47;5039566;28;19912;-51
2023/05/29 08:04:25;;;;;;;;;;;;;;;21.82;57.87;102427.97;5040121;28;19920;-54
2023/05/29 08:06:50;;;;;;;;;;;;;;;21.54;58.12;102421.22;5057171;28;19922;-51
2023/05/29 08:09:17;;;;;;;;;;;;;;;21.68;57.79;102434.66;5038505;28;19917;-56
2023/05/29 08:11:45;;;;;;;;;;;;;;;21.79;57.46;102423.00;5039603;28;19935;-51
2023/05/29 08:14:11;;;;;;;;;;;;;;;22.04;57.22;102432.88;5039009;28;19904;-55
2023/05/29 08:16:37;;;;;;;;;;;;;;;21.96;57.98;102435.94;5043111;28;19913;-59
2023/05/29 08:19:03;;;;;;;;;;;;;;;22.39;56.80;102440.25;5056734;28;19924;-61
2023/05/29 08:21:29;;;;;;;;;;;;;;;22.38;56.81;102433.16;5062030;28;19913;-57
2023/05/29 08:23:55;;;;;;;;;;;;;;;22.32;56.38;102432.19;5059173;28;19913;-56
2023/05/29 08:26:20;;;;;;;;;;;;;;;22.64;56.60;102439.22;5056191;28;19947;-55
2023/05/29 08:28:46;;;;;;;;;;;;;;;22.82;55.38;102438.25;5057376;28;20296;-50
2023/05/29 08:31:11;;;;;;;;;;;;;;;22.82;54.19;102440.97;5056532;28;19917;-52
2023/05/29 08:33:37;;;;;;;;;;;;;;;22.81;54.23;102438.47;5058711;28;19919;-52
2023/05/29 08:36:03;;;;;;;;;;;;;;;22.67;55.03;102435.16;5054676;28;19913;-53
2023/05/29 08:38:29;;;;;;;;;;;;;;;23.18;54.01;102440.88;5056337;28;20024;-54
2023/05/29 08:40:56;;;;;;;;;;;;;;;23.18;54.29;102440.88;5059339;28;19913;-54
2023/05/29 08:43:22;;;;;;;;;;;;;;;23.08;53.19;102437.97;5061294;28;19912;-53
2023/05/29 08:45:51;;;;;;;;;;;;;;;23.41;53.58;102440.00;5056319;28;19924;-54
2023/05/29 08:48:18;;;;;;;;;;;;;;;23.43;51.62;102437.03;5058499;28;19913;-51
2023/05/29 08:50:46;;;;;;;;;;;;;;;23.68;51.86;102442.16;5062788;28;19936;-54
2023/05/29 08:53:13;;;;;;;;;;;;;;;23.77;51.58;102443.38;5058858;28;19909;-52
2023/05/29 08:55:38;;;;;;;;;;;;;;;23.87;49.94;102456.41;5056245;28;19963;-52
2023/05/29 08:58:05;;;;;;;;;;;;;;;24.15;50.47;102459.34;5055915;28;19919;-53
2023/05/29 09:00:31;;;;;;;;;;;;;;;24.31;49.16;102446.75;5057691;28;19935;-55
2023/05/29 09:02:59;;;;;;;;;;;;;;;24.39;49.86;102457.25;5060087;28;20076;-54
2023/05/29 09:05:27;;;;;;;;;;;;;;;24.35;48.86;102453.38;5056471;28;19913;-56
2023/05/29 09:07:57;;;;;;;;;;;;;;;24.49;48.17;102457.44;5060301;28;19963;-54
2023/05/29 09:10:25;;;;;;;;;;;;;;;24.59;49.20;102464.13;5060469;28;19917;-54
2023/05/29 09:12:51;;;;;;;;;;;;;;;24.91;48.98;102447.06;5055978;28;19931;-54
2023/05/29 09:15:20;;;;;;;;;;;;;;;25.22;47.28;102461.13;5057016;28;19972;-55
2023/05/29 09:17:52;;;;;;;;;;;;;;;24.86;49.06;102453.31;5059310;28;19913;-54
2023/05/29 09:20:19;;;;;;;;;;;;;;;25.40;47.79;102450.94;5061685;28;19921;-53
2023/05/29 09:22:54;;;;;;;;;;;;;;;25.74;47.33;102462.56;5053548;28;19913;-56
2023/05/29 09:25:22;;;;;;;;;;;;;;;25.68;45.98;102454.53;5055232;28;19917;-56
2023/05/29 09:27:50;;;;;;;;;;;;;;;25.60;45.67;102455.81;5041258;28;19967;-56
2023/05/29 09:30:34;;;;;;;;;;;;;;;26.15;44.70;102467.56;5059033;28;20343;-54
2023/05/29 09:33:01;;;;;;;;;;;;;;;26.62;43.36;102468.69;5065130;28;19913;-55
2023/05/29 09:35:36;;;;;;;;;;;;;;;26.97;43.63;102452.72;5059342;28;19940;-53
2023/05/29 09:38:02;;;;;;;;;;;;;;;27.10;43.60;102453.31;5058573;28;19920;-55
2023/05/29 09:40:32;;;;;;;;;;;;;;;27.72;42.00;102445.25;5065404;28;19935;-52
2023/05/29 09:43:13;;;;;;;;;;;;;;;28.36;40.69;102456.78;5062207;28;19927;-54
2023/05/29 09:45:46;;;;;;;;;;;;;;;28.58;40.18;102459.22;5058341;28;19973;-54
2023/05/29 09:48:13;;;;;;;;;;;;;;;29.01;40.34;102450.53;5058971;28;19952;-56
2023/05/29 09:50:39;;;;;;;;;;;;;;;29.13;38.68;102452.16;5064809;28;19913;-54
2023/05/29 09:53:16;;;;;;;;;;;;;;;29.08;40.14;102460.44;5058637;28;19945;-53
2023/05/29 09:55:42;;;;;;;;;;;;;;;29.88;38.03;102462.13;5059510;28;19921;-53
2023/05/29 09:58:08;;;;;;;;;;;;;;;30.16;36.96;102461.66;5059528;28;19913;-56
2023/05/29 10:00:34;;;;;;;;;;;;;;;30.69;36.28;102462.78;5061485;28;19921;-54
2023/05/29 10:02:59;;;;;;;;;;;;;;;30.58;35.51;102462.88;5055292;28;19920;-55
2023/05/29 10:05:25;;;;;;;;;;;;;;;31.28;34.31;102457.88;5064154;28;19972;-55
2023/05/29 10:07:53;;;;;;;;;;;;;;;31.18;33.14;102452.50;5061818;28;19960;-57
2023/05/29 10:10:19;;;;;;;;;;;;;;;30.71;34.02;102455.84;5056764;28;19939;-52
2023/05/29 10:12:47;;;;;;;;;;;;;;;31.28;32.90;102449.59;5061836;28;20622;-59
2023/05/29 10:15:14;;;;;;;;;;;;;;;31.50;34.64;102453.69;5058958;28;19992;-57
2023/05/29 10:17:43;;;;;;;;;;;;;;;31.64;33.69;102458.47;5064028;28;19913;-55
2023/05/29 10:20:13;;;;;;;;;;;;;;;31.90;31.32;102454.19;5058881;28;20008;-57
2023/05/29 10:22:40;;;;;;;;;;;;;;;32.36;31.14;102462.81;5056731;28;19913;-55
2023/05/29 10:25:08;;;;;;;;;;;;;;;32.93;30.27;102474.72;5061222;28;19913;-55
2023/05/29 10:27:34;;;;;;;;;;;;;;;32.75;31.94;102466.19;5063912;28;19924;-54
2023/05/29 10:30:02;;;;;;;;;;;;;;;33.25;30.67;102465.41;5056025;28;19912;-55
2023/05/29 10:32:48;;;;;;;;;;;;;;;33.50;30.35;102463.19;5056059;28;19913;-50
2023/05/29 10:35:22;;;;;;;;;;;;;;;33.31;31.28;102463.31;5062940;28;19936;-57
2023/05/29 10:37:57;;;;;;;;;;;;;;;32.80;29.32;102462.50;5067187;28;19934;-55
2023/05/29 10:40:25;;;;;;;;;;;;;;;33.41;29.58;102467.81;5061127;28;19913;-55
2023/05/29 10:43:00;;;;;;;;;;;;;;;33.39;28.90;102453.44;5054478;28;19945;-57
2023/05/29 10:45:31;;;;;;;;;;;;;;;32.67;29.41;102455.84;5057930;28;19936;-54
2023/05/29 10:48:17;;;;;;;;;;;;;;;32.71;29.33;102452.13;5058564;28;19917;-56
2023/05/29 10:50:43;;;;;;;;;;;;;;;32.71;29.62;102437.47;5061758;28;19912;-56
2023/05/29 10:53:11;;;;;;;;;;;;;;;33.92;27.89;102442.75;5055728;28;19913;-57
2023/05/29 10:55:37;;;;;;;;;;;;;;;34.64;27.97;102449.16;5061079;28;19943;-53
2023/05/29 10:58:06;;;;;;;;;;;;;;;34.87;26.91;102454.59;5058392;28;19992;-55
2023/05/29 11:00:32;;;;;;;;;;;;;;;34.89;26.61;102449.53;5067685;28;19997;-55
2023/05/29 11:03:01;;;;;;;;;;;;;;;34.64;27.01;102451.09;5061063;28;19937;-58
2023/05/29 11:05:27;;;;;;;;;;;;;;;34.84;27.65;102447.72;5064475;28;19938;-56
2023/05/29 11:07:54;;;;;;;;;;;;;;;35.30;25.95;102456.63;5063998;28;19960;-53
2023/05/29 11:10:39;;;;;;;;;;;;;;;34.85;26.08;102448.53;5063942;28;19921;-58
2023/05/29 11:13:07;;;;;;;;;;;;;;;34.71;27.54;102441.16;5056567;28;19913;-53
2023/05/29 11:15:33;;;;;;;;;;;;;;;34.59;27.19;102452.06;5060562;28;19913;-56
2023/05/29 11:18:05;;;;;;;;;;;;;;;34.24;28.09;102438.03;5060698;28;19970;-55
2023/05/29 11:20:45;;;;;;;;;;;;;;;35.37;26.95;102449.75;5053334;28;19913;-53
2023/05/29 11:23:16;;;;;;;;;;;;;;;34.58;26.47;102442.09;5060211;28;19924;-55
2023/05/29 11:25:43;;;;;;;;;;;;;;;35.56;25.29;102446.63;5061374;28;19917;-57
2023/05/29 11:28:10;;;;;;;;;;;;;;;35.92;26.23;102441.81;5066690;28;19943;-55
2023/05/29 11:30:42;;;;;;;;;;;;;;;36.39;25.95;102455.72;5065803;28;19944;-54
2023/05/29 11:33:15;;;;;;;;;;;;;;;36.42;26.03;102441.13;5058013;28;19944;-54
2023/05/29 11:35:41;;;;;;;;;;;;;;;35.89;25.79;102446.88;5060325;28;19935;-56
2023/05/29 11:38:06;;;;;;;;;;;;;;;36.59;26.04;102447.78;5057467;28;19912;-57
2023/05/29 11:40:36;;;;;;;;;;;;;;;37.47;25.21;102438.75;5061446;28;19919;-56
2023/05/29 11:43:01;;;;;;;;;;;;;;;38.01;25.15;102442.66;5039492;28;19913;-55
2023/05/29 11:45:27;;;;;;;;;;;;;;;37.33;24.68;102429.88;5055323;28;19913;-57
2023/05/29 11:47:59;;;;;;;;;;;;;;;37.47;23.58;102433.19;5056630;28;19952;-57
2023/05/29 11:50:28;;;;;;;;;;;;;;;37.70;24.56;102435.59;5058011;28;19916;-55
2023/05/29 11:52:55;;;;;;;;;;;;;;;38.19;23.46;102448.03;5060297;28;19920;-54
2023/05/29 11:55:21;;;;;;;;;;;;;;;37.90;23.03;102442.25;5054781;28;20492;-57
2023/05/29 11:57:47;;;;;;;;;;;;;;;37.92;23.12;102434.34;5056406;28;19916;-57
2023/05/29 12:00:14;;;;;;;;;;;;;;;37.95;23.28;102430.88;5057415;28;19944;-56
2023/05/29 12:02:41;;;;;;;;;;;;;;;37.41;23.82;102431.78;5059021;28;19912;-56
2023/05/29 12:05:07;;;;;;;;;;;;;;;37.15;23.96;102436.41;5061113;28;19913;-55
2023/05/29 12:07:33;;;;;;;;;;;;;;;37.13;23.78;102435.13;5057101;28;19959;-54
2023/05/29 12:10:12;;;;;;;;;;;;;;;37.17;23.67;102433.31;5057427;28;19923;-58
2023/05/29 12:12:39;;;;;;;;;;;;;;;37.27;23.21;102443.22;5054876;28;19959;-59
2023/05/29 12:15:06;;;;;;;;;;;;;;;37.67;23.11;102441.88;5059478;28;19909;-58
2023/05/29 12:17:32;;;;;;;;;;;;;;;37.17;22.75;102445.25;5058192;28;19916;-59
2023/05/29 12:19:58;;;;;;;;;;;;;;;37.59;22.06;102421.28;5061347;28;19920;-59
2023/05/29 12:22:34;;;;;;;;;;;;;;;37.49;23.75;102416.94;5058863;28;19920;-58
2023/05/29 12:25:23;;;;;;;;;;;;;;;37.71;23.51;102428.84;5057929;28;19912;-56
2023/05/29 12:27:49;;;;;;;;;;;;;;;38.13;23.32;102422.28;5044179;28;19925;-58
2023/05/29 12:30:15;;;;;;;;;;;;;;;38.78;23.31;102429.16;5059444;28;19916;-57
2023/05/29 12:32:42;;;;;;;;;;;;;;;38.89;21.96;102421.06;5058098;28;19913;-58
2023/05/29 12:35:16;;;;;;;;;;;;;;;39.27;21.33;102422.56;5056156;28;19913;-60
2023/05/29 12:37:43;;;;;;;;;;;;;;;39.97;21.34;102431.66;5059081;28;19913;-58